sensor_id;sensor_type;location;lat;lon;timestamp;P1;durP1;ratioP1;P2;durP2;ratioP2
47009;SDS011;59230;54.164;-3.124;2023-05-17T00:02:55;35.27;;;6.83;;
47009;SDS011;59230;54.164;-3.124;2023-05-17T00:05:21;30.23;;;5.50;;
47009;SDS011;59230;54.164;-3.124;2023-05-17T00:07:50;30.83;;;5.55;;
47009;SDS011;59230;54.164;-3.124;2023-05-17T00:10:18;25.92;;;5.82;;
47009;SDS011;59230;54.164;-3.124;2023-05-17T00:12:46;27.58;;;5.88;;
47009;SDS011;59230;54.164;-3.124;2023-05-17T00:15:15;28.25;;;5.47;;
47009;SDS011;59230;54.164;-3.124;2023-05-17T00:17:42;24.35;;;6.05;;
47009;SDS011;59230;54.164;-3.124;2023-05-17T00:20:08;29.55;;;5.60;;
47009;SDS011;59230;54.164;-3.124;2023-05-17T00:22:35;26.15;;;5.80;;
47009;SDS011;59230;54.164;-3.124;2023-05-17T00:25:03;23.83;;;5.60;;
47009;SDS011;59230;54.164;-3.124;2023-05-17T00:27:28;25.98;;;5.22;;
47009;SDS011;59230;54.164;-3.124;2023-05-17T00:29:57;27.42;;;6.20;;
47009;SDS011;59230;54.164;-3.124;2023-05-17T00:32:24;26.88;;;5.70;;
47009;SDS011;59230;54.164;-3.124;2023-05-17T00:34:52;33.00;;;5.72;;
47009;SDS011;59230;54.164;-3.124;2023-05-17T00:37:19;33.78;;;6.05;;
47009;SDS011;59230;54.164;-3.124;2023-05-17T00:39:49;36.78;;;6.15;;
47009;SDS011;59230;54.164;-3.124;2023-05-17T00:42:16;24.40;;;5.18;;
47009;SDS011;59230;54.164;-3.124;2023-05-17T00:44:42;25.55;;;5.43;;
47009;SDS011;59230;54.164;-3.124;2023-05-17T00:47:08;23.55;;;5.78;;
47009;SDS011;59230;54.164;-3.124;2023-05-17T00:49:39;37.40;;;6.07;;
47009;SDS011;59230;54.164;-3.124;2023-05-17T00:52:05;25.42;;;5.28;;
47009;SDS011;59230;54.164;-3.124;2023-05-17T00:54:33;29.80;;;6.07;;
47009;SDS011;59230;54.164;-3.124;2023-05-17T00:56:58;28.15;;;5.88;;
47009;SDS011;59230;54.164;-3.124;2023-05-17T00:59:28;25.58;;;5.28;;
47009;SDS011;59230;54.164;-3.124;2023-05-17T01:01:54;37.10;;;6.57;;
47009;SDS011;59230;54.164;-3.124;2023-05-17T01:04:23;22.02;;;5.38;;
47009;SDS011;59230;54.164;-3.124;2023-05-17T01:06:48;33.60;;;5.45;;
47009;SDS011;59230;54.164;-3.124;2023-05-17T01:09:15;29.20;;;6.15;;
47009;SDS011;59230;54.164;-3.124;2023-05-17T01:22:49;23.48;;;5.13;;
47009;SDS011;59230;54.164;-3.124;2023-05-17T01:25:59;23.38;;;5.43;;
47009;SDS011;59230;54.164;-3.124;2023-05-17T01:28:38;26.27;;;5.65;;
47009;SDS011;59230;54.164;-3.124;2023-05-17T01:31:12;32.67;;;5.32;;
47009;SDS011;59230;54.164;-3.124;2023-05-17T01:33:39;20.77;;;5.43;;
47009;SDS011;59230;54.164;-3.124;2023-05-17T01:36:06;25.63;;;5.18;;
47009;SDS011;59230;54.164;-3.124;2023-05-17T01:38:34;26.38;;;5.35;;
47009;SDS011;59230;54.164;-3.124;2023-05-17T01:41:13;24.17;;;5.38;;
47009;SDS011;59230;54.164;-3.124;2023-05-17T01:46:40;19.88;;;5.43;;
47009;SDS011;59230;54.164;-3.124;2023-05-17T01:54:55;35.90;;;6.25;;
47009;SDS011;59230;54.164;-3.124;2023-05-17T01:57:59;27.38;;;5.85;;
47009;SDS011;59230;54.164;-3.124;2023-05-17T02:00:27;54.63;;;6.28;;
47009;SDS011;59230;54.164;-3.124;2023-05-17T02:02:54;21.80;;;5.35;;
47009;SDS011;59230;54.164;-3.124;2023-05-17T02:05:22;29.35;;;6.00;;
47009;SDS011;59230;54.164;-3.124;2023-05-17T02:07:50;20.98;;;5.45;;
47009;SDS011;59230;54.164;-3.124;2023-05-17T02:10:15;31.20;;;5.68;;
47009;SDS011;59230;54.164;-3.124;2023-05-17T02:12:41;26.30;;;4.75;;
47009;SDS011;59230;54.164;-3.124;2023-05-17T02:15:07;24.58;;;5.10;;
47009;SDS011;59230;54.164;-3.124;2023-05-17T02:17:35;25.15;;;6.03;;
47009;SDS011;59230;54.164;-3.124;2023-05-17T02:20:00;22.13;;;5.63;;
47009;SDS011;59230;54.164;-3.124;2023-05-17T02:22:26;21.63;;;6.32;;
47009;SDS011;59230;54.164;-3.124;2023-05-17T02:24:51;27.23;;;5.90;;
47009;SDS011;59230;54.164;-3.124;2023-05-17T02:27:17;26.58;;;5.45;;
47009;SDS011;59230;54.164;-3.124;2023-05-17T02:29:42;29.13;;;6.05;;
47009;SDS011;59230;54.164;-3.124;2023-05-17T02:32:07;26.35;;;5.47;;
47009;SDS011;59230;54.164;-3.124;2023-05-17T02:34:33;19.83;;;5.63;;
47009;SDS011;59230;54.164;-3.124;2023-05-17T02:36:58;23.48;;;5.80;;
47009;SDS011;59230;54.164;-3.124;2023-05-17T02:39:24;20.55;;;5.20;;
47009;SDS011;59230;54.164;-3.124;2023-05-17T02:41:49;22.80;;;6.07;;
47009;SDS011;59230;54.164;-3.124;2023-05-17T02:44:15;28.65;;;6.10;;
47009;SDS011;59230;54.164;-3.124;2023-05-17T02:46:40;27.38;;;6.10;;
47009;SDS011;59230;54.164;-3.124;2023-05-17T02:49:05;25.60;;;6.03;;
47009;SDS011;59230;54.164;-3.124;2023-05-17T02:51:31;25.30;;;5.57;;
47009;SDS011;59230;54.164;-3.124;2023-05-17T02:53:56;23.38;;;6.35;;
47009;SDS011;59230;54.164;-3.124;2023-05-17T02:56:22;24.30;;;5.40;;
47009;SDS011;59230;54.164;-3.124;2023-05-17T02:58:47;27.55;;;5.90;;
47009;SDS011;59230;54.164;-3.124;2023-05-17T03:01:12;30.38;;;6.15;;
47009;SDS011;59230;54.164;-3.124;2023-05-17T03:03:38;25.27;;;5.97;;
47009;SDS011;59230;54.164;-3.124;2023-05-17T03:06:03;28.08;;;6.55;;
47009;SDS011;59230;54.164;-3.124;2023-05-17T03:08:35;28.15;;;5.20;;
47009;SDS011;59230;54.164;-3.124;2023-05-17T03:11:00;23.45;;;5.72;;
47009;SDS011;59230;54.164;-3.124;2023-05-17T03:13:26;26.35;;;5.50;;
47009;SDS011;59230;54.164;-3.124;2023-05-17T03:15:51;25.08;;;6.15;;
47009;SDS011;59230;54.164;-3.124;2023-05-17T03:18:16;20.88;;;5.10;;
47009;SDS011;59230;54.164;-3.124;2023-05-17T03:20:42;23.23;;;5.47;;
47009;SDS011;59230;54.164;-3.124;2023-05-17T03:23:08;18.45;;;5.93;;
47009;SDS011;59230;54.164;-3.124;2023-05-17T03:25:33;19.27;;;5.50;;
47009;SDS011;59230;54.164;-3.124;2023-05-17T03:27:59;25.95;;;5.50;;
47009;SDS011;59230;54.164;-3.124;2023-05-17T03:30:24;25.52;;;5.80;;
47009;SDS011;59230;54.164;-3.124;2023-05-17T03:32:51;24.60;;;6.43;;
47009;SDS011;59230;54.164;-3.124;2023-05-17T03:35:17;19.70;;;4.97;;
47009;SDS011;59230;54.164;-3.124;2023-05-17T03:37:42;26.67;;;6.47;;
47009;SDS011;59230;54.164;-3.124;2023-05-17T03:40:07;23.08;;;5.85;;
47009;SDS011;59230;54.164;-3.124;2023-05-17T03:42:33;21.80;;;4.93;;
47009;SDS011;59230;54.164;-3.124;2023-05-17T03:44:58;20.45;;;5.00;;
47009;SDS011;59230;54.164;-3.124;2023-05-17T03:47:25;23.45;;;4.85;;
47009;SDS011;59230;54.164;-3.124;2023-05-17T03:49:50;15.90;;;5.13;;
47009;SDS011;59230;54.164;-3.124;2023-05-17T03:52:15;30.48;;;5.68;;
47009;SDS011;59230;54.164;-3.124;2023-05-17T03:54:41;18.10;;;5.25;;
47009;SDS011;59230;54.164;-3.124;2023-05-17T03:57:06;16.38;;;5.07;;
47009;SDS011;59230;54.164;-3.124;2023-05-17T03:59:32;21.52;;;5.20;;
47009;SDS011;59230;54.164;-3.124;2023-05-17T04:01:57;24.35;;;5.70;;
47009;SDS011;59230;54.164;-3.124;2023-05-17T04:04:23;19.17;;;5.35;;
47009;SDS011;59230;54.164;-3.124;2023-05-17T04:06:48;19.95;;;5.68;;
47009;SDS011;59230;54.164;-3.124;2023-05-17T04:09:14;18.60;;;5.38;;
47009;SDS011;59230;54.164;-3.124;2023-05-17T04:11:40;29.00;;;6.05;;
47009;SDS011;59230;54.164;-3.124;2023-05-17T04:14:06;20.58;;;5.28;;
47009;SDS011;59230;54.164;-3.124;2023-05-17T04:16:31;17.95;;;4.82;;
47009;SDS011;59230;54.164;-3.124;2023-05-17T04:18:58;21.75;;;5.55;;
47009;SDS011;59230;54.164;-3.124;2023-05-17T04:21:24;14.98;;;4.90;;
47009;SDS011;59230;54.164;-3.124;2023-05-17T04:23:50;21.08;;;5.03;;
47009;SDS011;59230;54.164;-3.124;2023-05-17T04:26:16;21.25;;;5.07;;
47009;SDS011;59230;54.164;-3.124;2023-05-17T04:28:41;18.48;;;5.93;;
47009;SDS011;59230;54.164;-3.124;2023-05-17T04:31:07;19.13;;;5.15;;
47009;SDS011;59230;54.164;-3.124;2023-05-17T04:33:33;23.10;;;5.35;;
47009;SDS011;59230;54.164;-3.124;2023-05-17T04:35:58;24.75;;;5.10;;
47009;SDS011;59230;54.164;-3.124;2023-05-17T04:38:24;31.10;;;5.93;;
47009;SDS011;59230;54.164;-3.124;2023-05-17T04:40:49;27.45;;;6.53;;
47009;SDS011;59230;54.164;-3.124;2023-05-17T04:43:15;24.67;;;5.63;;
47009;SDS011;59230;54.164;-3.124;2023-05-17T04:45:40;28.40;;;5.90;;
47009;SDS011;59230;54.164;-3.124;2023-05-17T04:48:06;30.10;;;5.97;;
47009;SDS011;59230;54.164;-3.124;2023-05-17T04:50:32;32.15;;;5.72;;
47009;SDS011;59230;54.164;-3.124;2023-05-17T04:52:57;26.27;;;6.22;;
47009;SDS011;59230;54.164;-3.124;2023-05-17T04:55:23;24.75;;;5.95;;
47009;SDS011;59230;54.164;-3.124;2023-05-17T04:57:48;27.75;;;7.57;;
47009;SDS011;59230;54.164;-3.124;2023-05-17T05:00:14;30.38;;;6.88;;
47009;SDS011;59230;54.164;-3.124;2023-05-17T05:02:40;24.23;;;6.25;;
47009;SDS011;59230;54.164;-3.124;2023-05-17T05:05:06;24.48;;;5.65;;
47009;SDS011;59230;54.164;-3.124;2023-05-17T05:07:33;24.77;;;5.72;;
47009;SDS011;59230;54.164;-3.124;2023-05-17T05:09:59;26.65;;;5.68;;
47009;SDS011;59230;54.164;-3.124;2023-05-17T05:12:25;23.88;;;5.97;;
47009;SDS011;59230;54.164;-3.124;2023-05-17T05:14:50;26.38;;;5.53;;
47009;SDS011;59230;54.164;-3.124;2023-05-17T05:17:18;26.83;;;5.93;;
47009;SDS011;59230;54.164;-3.124;2023-05-17T05:19:44;19.23;;;4.97;;
47009;SDS011;59230;54.164;-3.124;2023-05-17T05:22:10;19.15;;;5.85;;
47009;SDS011;59230;54.164;-3.124;2023-05-17T05:24:35;23.20;;;5.70;;
47009;SDS011;59230;54.164;-3.124;2023-05-17T05:27:01;31.85;;;6.65;;
47009;SDS011;59230;54.164;-3.124;2023-05-17T05:29:26;25.33;;;5.50;;
47009;SDS011;59230;54.164;-3.124;2023-05-17T05:31:51;24.92;;;5.15;;
47009;SDS011;59230;54.164;-3.124;2023-05-17T05:34:17;27.00;;;5.68;;
47009;SDS011;59230;54.164;-3.124;2023-05-17T05:36:42;18.75;;;4.43;;
47009;SDS011;59230;54.164;-3.124;2023-05-17T05:39:08;19.10;;;5.45;;
47009;SDS011;59230;54.164;-3.124;2023-05-17T05:41:34;17.60;;;4.65;;
47009;SDS011;59230;54.164;-3.124;2023-05-17T05:43:59;17.58;;;5.07;;
47009;SDS011;59230;54.164;-3.124;2023-05-17T05:46:25;20.30;;;4.68;;
47009;SDS011;59230;54.164;-3.124;2023-05-17T05:48:50;17.67;;;4.45;;
47009;SDS011;59230;54.164;-3.124;2023-05-17T05:51:16;18.63;;;4.40;;
47009;SDS011;59230;54.164;-3.124;2023-05-17T05:53:43;17.60;;;4.78;;
47009;SDS011;59230;54.164;-3.124;2023-05-17T05:56:08;23.73;;;5.28;;
47009;SDS011;59230;54.164;-3.124;2023-05-17T05:58:34;22.08;;;5.15;;
47009;SDS011;59230;54.164;-3.124;2023-05-17T06:00:59;19.15;;;4.18;;
47009;SDS011;59230;54.164;-3.124;2023-05-17T06:03:25;19.65;;;4.60;;
47009;SDS011;59230;54.164;-3.124;2023-05-17T06:05:50;23.95;;;5.72;;
47009;SDS011;59230;54.164;-3.124;2023-05-17T06:08:16;19.38;;;4.90;;
47009;SDS011;59230;54.164;-3.124;2023-05-17T06:10:41;17.23;;;4.75;;
47009;SDS011;59230;54.164;-3.124;2023-05-17T06:13:07;18.30;;;5.20;;
47009;SDS011;59230;54.164;-3.124;2023-05-17T06:15:32;18.13;;;5.18;;
47009;SDS011;59230;54.164;-3.124;2023-05-17T06:17:58;20.52;;;5.40;;
47009;SDS011;59230;54.164;-3.124;2023-05-17T06:20:23;16.73;;;4.85;;
47009;SDS011;59230;54.164;-3.124;2023-05-17T06:22:48;17.20;;;4.93;;
47009;SDS011;59230;54.164;-3.124;2023-05-17T06:25:14;18.48;;;5.32;;
47009;SDS011;59230;54.164;-3.124;2023-05-17T06:27:40;22.08;;;4.80;;
47009;SDS011;59230;54.164;-3.124;2023-05-17T06:30:05;21.52;;;5.18;;
47009;SDS011;59230;54.164;-3.124;2023-05-17T06:32:31;15.80;;;4.72;;
47009;SDS011;59230;54.164;-3.124;2023-05-17T06:34:57;18.77;;;5.18;;
47009;SDS011;59230;54.164;-3.124;2023-05-17T06:37:22;17.67;;;4.78;;
47009;SDS011;59230;54.164;-3.124;2023-05-17T06:39:49;22.48;;;4.93;;
47009;SDS011;59230;54.164;-3.124;2023-05-17T06:42:15;21.48;;;5.50;;
47009;SDS011;59230;54.164;-3.124;2023-05-17T06:44:41;19.65;;;4.85;;
47009;SDS011;59230;54.164;-3.124;2023-05-17T06:47:07;20.73;;;5.30;;
47009;SDS011;59230;54.164;-3.124;2023-05-17T06:49:32;20.77;;;5.05;;
47009;SDS011;59230;54.164;-3.124;2023-05-17T06:51:58;16.70;;;4.68;;
47009;SDS011;59230;54.164;-3.124;2023-05-17T06:54:27;16.92;;;4.70;;
47009;SDS011;59230;54.164;-3.124;2023-05-17T06:56:54;23.70;;;5.00;;
47009;SDS011;59230;54.164;-3.124;2023-05-17T06:59:23;20.85;;;4.85;;
47009;SDS011;59230;54.164;-3.124;2023-05-17T07:01:48;23.17;;;5.35;;
47009;SDS011;59230;54.164;-3.124;2023-05-17T07:04:14;19.98;;;4.90;;
47009;SDS011;59230;54.164;-3.124;2023-05-17T07:06:39;18.90;;;5.53;;
47009;SDS011;59230;54.164;-3.124;2023-05-17T07:09:05;22.80;;;5.97;;
47009;SDS011;59230;54.164;-3.124;2023-05-17T07:11:31;21.70;;;5.45;;
47009;SDS011;59230;54.164;-3.124;2023-05-17T07:13:56;18.42;;;5.00;;
47009;SDS011;59230;54.164;-3.124;2023-05-17T07:16:22;19.30;;;4.65;;
47009;SDS011;59230;54.164;-3.124;2023-05-17T07:18:47;27.33;;;5.30;;
47009;SDS011;59230;54.164;-3.124;2023-05-17T07:21:13;20.52;;;5.25;;
47009;SDS011;59230;54.164;-3.124;2023-05-17T07:23:39;21.27;;;4.88;;
47009;SDS011;59230;54.164;-3.124;2023-05-17T07:26:04;20.40;;;5.32;;
47009;SDS011;59230;54.164;-3.124;2023-05-17T07:28:30;20.80;;;5.00;;
47009;SDS011;59230;54.164;-3.124;2023-05-17T07:30:55;18.50;;;4.70;;
47009;SDS011;59230;54.164;-3.124;2023-05-17T07:33:21;28.60;;;4.95;;
47009;SDS011;59230;54.164;-3.124;2023-05-17T07:35:46;17.75;;;4.38;;
47009;SDS011;59230;54.164;-3.124;2023-05-17T07:38:12;21.30;;;5.22;;
47009;SDS011;59230;54.164;-3.124;2023-05-17T07:40:37;20.67;;;4.53;;
47009;SDS011;59230;54.164;-3.124;2023-05-17T07:43:03;16.33;;;4.55;;
47009;SDS011;59230;54.164;-3.124;2023-05-17T07:45:28;17.98;;;4.95;;
47009;SDS011;59230;54.164;-3.124;2023-05-17T07:47:53;15.85;;;4.47;;
47009;SDS011;59230;54.164;-3.124;2023-05-17T07:50:19;17.42;;;4.97;;
47009;SDS011;59230;54.164;-3.124;2023-05-17T07:52:44;14.75;;;4.00;;
47009;SDS011;59230;54.164;-3.124;2023-05-17T07:55:10;13.07;;;4.72;;
47009;SDS011;59230;54.164;-3.124;2023-05-17T07:57:35;18.15;;;4.68;;
47009;SDS011;59230;54.164;-3.124;2023-05-17T08:00:01;18.05;;;4.30;;
47009;SDS011;59230;54.164;-3.124;2023-05-17T08:02:26;20.10;;;4.97;;
47009;SDS011;59230;54.164;-3.124;2023-05-17T08:04:52;20.20;;;4.35;;
47009;SDS011;59230;54.164;-3.124;2023-05-17T08:07:17;18.27;;;4.30;;
47009;SDS011;59230;54.164;-3.124;2023-05-17T08:09:42;14.43;;;4.30;;
47009;SDS011;59230;54.164;-3.124;2023-05-17T08:12:09;14.48;;;4.55;;
47009;SDS011;59230;54.164;-3.124;2023-05-17T08:14:35;16.20;;;4.03;;
47009;SDS011;59230;54.164;-3.124;2023-05-17T08:17:03;20.13;;;4.55;;
47009;SDS011;59230;54.164;-3.124;2023-05-17T08:19:28;18.88;;;4.40;;
47009;SDS011;59230;54.164;-3.124;2023-05-17T08:21:54;16.27;;;3.83;;
47009;SDS011;59230;54.164;-3.124;2023-05-17T08:24:20;12.38;;;3.45;;
47009;SDS011;59230;54.164;-3.124;2023-05-17T08:26:45;16.55;;;3.78;;
47009;SDS011;59230;54.164;-3.124;2023-05-17T08:29:10;15.90;;;4.18;;
47009;SDS011;59230;54.164;-3.124;2023-05-17T08:31:36;17.20;;;4.25;;
47009;SDS011;59230;54.164;-3.124;2023-05-17T08:34:01;15.10;;;3.47;;
47009;SDS011;59230;54.164;-3.124;2023-05-17T08:36:27;7.72;;;3.30;;
47009;SDS011;59230;54.164;-3.124;2023-05-17T08:38:52;16.15;;;4.10;;
47009;SDS011;59230;54.164;-3.124;2023-05-17T08:41:19;13.98;;;3.50;;
47009;SDS011;59230;54.164;-3.124;2023-05-17T08:43:45;10.88;;;3.40;;
47009;SDS011;59230;54.164;-3.124;2023-05-17T08:46:12;10.65;;;3.47;;
47009;SDS011;59230;54.164;-3.124;2023-05-17T08:48:39;9.85;;;3.42;;
47009;SDS011;59230;54.164;-3.124;2023-05-17T08:51:07;15.65;;;3.45;;
47009;SDS011;59230;54.164;-3.124;2023-05-17T08:53:35;12.13;;;3.28;;
47009;SDS011;59230;54.164;-3.124;2023-05-17T08:56:01;10.10;;;3.38;;
47009;SDS011;59230;54.164;-3.124;2023-05-17T08:58:30;10.75;;;3.90;;
47009;SDS011;59230;54.164;-3.124;2023-05-17T09:03:54;10.45;;;2.95;;
47009;SDS011;59230;54.164;-3.124;2023-05-17T09:06:20;14.27;;;3.58;;
47009;SDS011;59230;54.164;-3.124;2023-05-17T09:08:49;13.05;;;3.70;;
47009;SDS011;59230;54.164;-3.124;2023-05-17T09:11:27;14.73;;;4.30;;
47009;SDS011;59230;54.164;-3.124;2023-05-17T09:13:58;13.02;;;3.97;;
47009;SDS011;59230;54.164;-3.124;2023-05-17T09:16:36;15.43;;;4.25;;
47009;SDS011;59230;54.164;-3.124;2023-05-17T09:19:05;10.55;;;3.40;;
47009;SDS011;59230;54.164;-3.124;2023-05-17T09:21:31;10.05;;;3.17;;
47009;SDS011;59230;54.164;-3.124;2023-05-17T09:24:04;15.70;;;3.20;;
47009;SDS011;59230;54.164;-3.124;2023-05-17T09:26:40;7.78;;;2.92;;
47009;SDS011;59230;54.164;-3.124;2023-05-17T09:29:10;9.95;;;2.88;;
47009;SDS011;59230;54.164;-3.124;2023-05-17T09:31:40;11.20;;;3.22;;
47009;SDS011;59230;54.164;-3.124;2023-05-17T09:34:06;13.48;;;3.50;;
47009;SDS011;59230;54.164;-3.124;2023-05-17T09:36:32;12.25;;;3.20;;
47009;SDS011;59230;54.164;-3.124;2023-05-17T09:39:01;13.35;;;2.88;;
47009;SDS011;59230;54.164;-3.124;2023-05-17T09:41:30;11.48;;;2.65;;
47009;SDS011;59230;54.164;-3.124;2023-05-17T09:44:07;14.48;;;3.50;;
47009;SDS011;59230;54.164;-3.124;2023-05-17T09:46:33;18.10;;;4.05;;
47009;SDS011;59230;54.164;-3.124;2023-05-17T09:49:03;15.20;;;3.42;;
47009;SDS011;59230;54.164;-3.124;2023-05-17T09:54:00;12.55;;;3.67;;
47009;SDS011;59230;54.164;-3.124;2023-05-17T09:56:29;14.00;;;3.67;;
47009;SDS011;59230;54.164;-3.124;2023-05-17T09:58:55;15.45;;;3.40;;
47009;SDS011;59230;54.164;-3.124;2023-05-17T10:01:24;15.00;;;4.22;;
47009;SDS011;59230;54.164;-3.124;2023-05-17T10:03:51;19.10;;;3.78;;
47009;SDS011;59230;54.164;-3.124;2023-05-17T10:06:17;11.60;;;2.95;;
47009;SDS011;59230;54.164;-3.124;2023-05-17T10:08:48;13.57;;;3.15;;
47009;SDS011;59230;54.164;-3.124;2023-05-17T10:11:37;14.25;;;3.20;;
47009;SDS011;59230;54.164;-3.124;2023-05-17T10:14:17;18.38;;;3.67;;
47009;SDS011;59230;54.164;-3.124;2023-05-17T10:16:48;10.52;;;3.55;;
47009;SDS011;59230;54.164;-3.124;2023-05-17T10:23:07;12.80;;;2.92;;
47009;SDS011;59230;54.164;-3.124;2023-05-17T10:26:16;14.95;;;3.50;;
47009;SDS011;59230;54.164;-3.124;2023-05-17T10:28:41;17.35;;;4.00;;
47009;SDS011;59230;54.164;-3.124;2023-05-17T10:31:10;11.65;;;2.97;;
47009;SDS011;59230;54.164;-3.124;2023-05-17T10:33:36;15.18;;;3.05;;
47009;SDS011;59230;54.164;-3.124;2023-05-17T10:36:03;17.73;;;3.13;;
47009;SDS011;59230;54.164;-3.124;2023-05-17T10:38:30;12.48;;;2.97;;
47009;SDS011;59230;54.164;-3.124;2023-05-17T10:41:02;15.25;;;3.47;;
47009;SDS011;59230;54.164;-3.124;2023-05-17T10:43:28;13.90;;;2.80;;
47009;SDS011;59230;54.164;-3.124;2023-05-17T10:45:54;15.35;;;2.97;;
47009;SDS011;59230;54.164;-3.124;2023-05-17T10:48:22;12.75;;;2.65;;
47009;SDS011;59230;54.164;-3.124;2023-05-17T10:54:15;13.63;;;2.60;;
47009;SDS011;59230;54.164;-3.124;2023-05-17T10:56:50;14.43;;;2.47;;
47009;SDS011;59230;54.164;-3.124;2023-05-17T11:01:57;8.52;;;2.45;;
47009;SDS011;59230;54.164;-3.124;2023-05-17T11:04:40;10.25;;;2.42;;
47009;SDS011;59230;54.164;-3.124;2023-05-17T11:09:41;6.68;;;1.70;;
47009;SDS011;59230;54.164;-3.124;2023-05-17T11:12:11;8.38;;;2.20;;
47009;SDS011;59230;54.164;-3.124;2023-05-17T11:17:14;14.13;;;2.92;;
47009;SDS011;59230;54.164;-3.124;2023-05-17T11:22:33;11.50;;;2.67;;
47009;SDS011;59230;54.164;-3.124;2023-05-17T11:25:07;18.63;;;3.40;;
47009;SDS011;59230;54.164;-3.124;2023-05-17T11:27:49;11.63;;;2.95;;
47009;SDS011;59230;54.164;-3.124;2023-05-17T11:32:50;14.55;;;3.30;;
47009;SDS011;59230;54.164;-3.124;2023-05-17T11:35:25;9.90;;;2.88;;
47009;SDS011;59230;54.164;-3.124;2023-05-17T11:37:52;15.50;;;2.80;;
47009;SDS011;59230;54.164;-3.124;2023-05-17T11:40:27;11.13;;;2.88;;
47009;SDS011;59230;54.164;-3.124;2023-05-17T11:43:47;11.55;;;2.70;;
47009;SDS011;59230;54.164;-3.124;2023-05-17T11:50:01;9.95;;;2.40;;
47009;SDS011;59230;54.164;-3.124;2023-05-17T11:52:28;14.35;;;2.95;;
47009;SDS011;59230;54.164;-3.124;2023-05-17T11:54:56;8.50;;;2.58;;
47009;SDS011;59230;54.164;-3.124;2023-05-17T11:57:29;10.57;;;2.75;;
47009;SDS011;59230;54.164;-3.124;2023-05-17T12:00:38;10.82;;;2.78;;
47009;SDS011;59230;54.164;-3.124;2023-05-17T12:02:57;9.23;;;2.50;;
47009;SDS011;59230;54.164;-3.124;2023-05-17T12:05:23;6.68;;;2.10;;
47009;SDS011;59230;54.164;-3.124;2023-05-17T12:07:49;8.20;;;2.40;;
47009;SDS011;59230;54.164;-3.124;2023-05-17T12:10:16;9.98;;;2.85;;
47009;SDS011;59230;54.164;-3.124;2023-05-17T12:12:42;4.88;;;2.45;;
47009;SDS011;59230;54.164;-3.124;2023-05-17T12:15:08;4.97;;;2.10;;
47009;SDS011;59230;54.164;-3.124;2023-05-17T12:17:36;8.55;;;2.22;;
47009;SDS011;59230;54.164;-3.124;2023-05-17T12:20:09;10.75;;;2.90;;
47009;SDS011;59230;54.164;-3.124;2023-05-17T12:22:50;9.52;;;2.05;;
47009;SDS011;59230;54.164;-3.124;2023-05-17T12:27:44;7.85;;;2.40;;
47009;SDS011;59230;54.164;-3.124;2023-05-17T12:30:18;6.97;;;1.88;;
47009;SDS011;59230;54.164;-3.124;2023-05-17T12:32:44;7.72;;;1.92;;
47009;SDS011;59230;54.164;-3.124;2023-05-17T12:38:13;7.72;;;2.45;;
47009;SDS011;59230;54.164;-3.124;2023-05-17T12:40:39;11.43;;;2.70;;
47009;SDS011;59230;54.164;-3.124;2023-05-17T12:43:04;7.15;;;2.13;;
47009;SDS011;59230;54.164;-3.124;2023-05-17T12:45:30;9.80;;;2.13;;
47009;SDS011;59230;54.164;-3.124;2023-05-17T12:47:59;7.13;;;2.00;;
47009;SDS011;59230;54.164;-3.124;2023-05-17T12:50:27;8.50;;;2.50;;
47009;SDS011;59230;54.164;-3.124;2023-05-17T12:52:56;9.50;;;1.88;;
47009;SDS011;59230;54.164;-3.124;2023-05-17T12:55:24;8.25;;;1.88;;
47009;SDS011;59230;54.164;-3.124;2023-05-17T12:57:53;9.32;;;2.17;;
47009;SDS011;59230;54.164;-3.124;2023-05-17T13:00:19;7.22;;;2.30;;
47009;SDS011;59230;54.164;-3.124;2023-05-17T13:02:48;6.63;;;2.33;;
47009;SDS011;59230;54.164;-3.124;2023-05-17T13:05:16;8.77;;;2.50;;
47009;SDS011;59230;54.164;-3.124;2023-05-17T13:07:43;11.88;;;2.90;;
47009;SDS011;59230;54.164;-3.124;2023-05-17T13:10:22;11.07;;;2.58;;
47009;SDS011;59230;54.164;-3.124;2023-05-17T13:12:59;12.00;;;2.92;;
47009;SDS011;59230;54.164;-3.124;2023-05-17T13:15:28;6.85;;;2.40;;
47009;SDS011;59230;54.164;-3.124;2023-05-17T13:17:58;11.50;;;3.00;;
47009;SDS011;59230;54.164;-3.124;2023-05-17T13:20:46;12.63;;;3.10;;
47009;SDS011;59230;54.164;-3.124;2023-05-17T13:23:12;10.70;;;2.70;;
47009;SDS011;59230;54.164;-3.124;2023-05-17T13:25:37;10.10;;;2.70;;
47009;SDS011;59230;54.164;-3.124;2023-05-17T13:28:03;14.77;;;3.25;;
47009;SDS011;59230;54.164;-3.124;2023-05-17T13:30:50;8.93;;;3.00;;
47009;SDS011;59230;54.164;-3.124;2023-05-17T13:33:17;12.07;;;3.05;;
47009;SDS011;59230;54.164;-3.124;2023-05-17T13:35:43;11.93;;;3.13;;
47009;SDS011;59230;54.164;-3.124;2023-05-17T13:38:10;9.52;;;3.53;;
47009;SDS011;59230;54.164;-3.124;2023-05-17T13:40:36;12.18;;;3.33;;
47009;SDS011;59230;54.164;-3.124;2023-05-17T13:43:03;11.65;;;3.22;;
47009;SDS011;59230;54.164;-3.124;2023-05-17T13:45:28;10.25;;;3.95;;
47009;SDS011;59230;54.164;-3.124;2023-05-17T13:47:55;9.75;;;3.20;;
47009;SDS011;59230;54.164;-3.124;2023-05-17T13:50:21;14.75;;;3.58;;
47009;SDS011;59230;54.164;-3.124;2023-05-17T13:52:48;7.90;;;2.80;;
47009;SDS011;59230;54.164;-3.124;2023-05-17T13:55:14;13.88;;;3.88;;
47009;SDS011;59230;54.164;-3.124;2023-05-17T13:57:41;18.60;;;4.32;;
47009;SDS011;59230;54.164;-3.124;2023-05-17T14:00:07;11.77;;;3.80;;
47009;SDS011;59230;54.164;-3.124;2023-05-17T14:02:37;13.00;;;3.70;;
47009;SDS011;59230;54.164;-3.124;2023-05-17T14:05:06;10.82;;;3.70;;
47009;SDS011;59230;54.164;-3.124;2023-05-17T14:07:34;9.88;;;2.95;;
47009;SDS011;59230;54.164;-3.124;2023-05-17T14:10:09;14.32;;;3.40;;
47009;SDS011;59230;54.164;-3.124;2023-05-17T14:12:37;11.15;;;3.10;;
47009;SDS011;59230;54.164;-3.124;2023-05-17T14:15:04;12.15;;;3.63;;
47009;SDS011;59230;54.164;-3.124;2023-05-17T14:17:30;13.88;;;3.38;;
47009;SDS011;59230;54.164;-3.124;2023-05-17T14:20:00;15.10;;;3.55;;
47009;SDS011;59230;54.164;-3.124;2023-05-17T14:22:28;8.55;;;3.25;;
47009;SDS011;59230;54.164;-3.124;2023-05-17T14:24:55;12.80;;;3.45;;
47009;SDS011;59230;54.164;-3.124;2023-05-17T14:27:20;15.88;;;3.97;;
47009;SDS011;59230;54.164;-3.124;2023-05-17T14:29:47;17.05;;;3.88;;
47009;SDS011;59230;54.164;-3.124;2023-05-17T14:32:12;14.07;;;4.50;;
47009;SDS011;59230;54.164;-3.124;2023-05-17T14:34:38;17.15;;;3.97;;
47009;SDS011;59230;54.164;-3.124;2023-05-17T14:37:05;15.48;;;4.28;;
47009;SDS011;59230;54.164;-3.124;2023-05-17T14:39:31;21.40;;;4.40;;
47009;SDS011;59230;54.164;-3.124;2023-05-17T14:42:30;16.88;;;4.00;;
47009;SDS011;59230;54.164;-3.124;2023-05-17T14:44:56;13.52;;;3.92;;
47009;SDS011;59230;54.164;-3.124;2023-05-17T14:47:22;20.55;;;4.72;;
47009;SDS011;59230;54.164;-3.124;2023-05-17T14:49:47;14.10;;;3.92;;
47009;SDS011;59230;54.164;-3.124;2023-05-17T14:52:13;19.50;;;5.20;;
47009;SDS011;59230;54.164;-3.124;2023-05-17T14:54:39;15.43;;;4.47;;
47009;SDS011;59230;54.164;-3.124;2023-05-17T14:57:05;14.40;;;4.85;;
47009;SDS011;59230;54.164;-3.124;2023-05-17T14:59:32;16.38;;;4.93;;
47009;SDS011;59230;54.164;-3.124;2023-05-17T15:01:58;18.63;;;5.18;;
47009;SDS011;59230;54.164;-3.124;2023-05-17T15:04:26;13.57;;;4.55;;
47009;SDS011;59230;54.164;-3.124;2023-05-17T15:06:51;15.32;;;4.60;;
47009;SDS011;59230;54.164;-3.124;2023-05-17T15:09:17;17.80;;;5.25;;
47009;SDS011;59230;54.164;-3.124;2023-05-17T15:11:43;15.45;;;4.65;;
47009;SDS011;59230;54.164;-3.124;2023-05-17T15:14:09;12.85;;;4.55;;
47009;SDS011;59230;54.164;-3.124;2023-05-17T15:16:36;18.50;;;4.63;;
47009;SDS011;59230;54.164;-3.124;2023-05-17T15:19:02;14.15;;;4.57;;
47009;SDS011;59230;54.164;-3.124;2023-05-17T15:21:27;12.38;;;4.57;;
47009;SDS011;59230;54.164;-3.124;2023-05-17T15:23:53;16.27;;;5.03;;